createdAt,value
2022-12-26T00:01:14.621Z,77.63
2022-12-26T00:03:43.088Z,82.67
2022-12-26T00:06:15.499Z,82.87
2022-12-26T00:08:43.905Z,82.50
2022-12-26T00:11:12.577Z,84.50
2022-12-26T00:13:41.882Z,80.30
2022-12-26T00:16:11.047Z,83.30
2022-12-26T00:18:40.022Z,87.50
2022-12-26T00:21:08.634Z,88.87
2022-12-26T00:23:38.926Z,85.03
2022-12-26T00:26:08.157Z,89.23
2022-12-26T00:28:37.004Z,87.27
2022-12-26T00:31:05.834Z,93.17
2022-12-26T00:33:35.461Z,89.80
2022-12-26T00:36:04.167Z,95.73
2022-12-26T00:38:32.547Z,97.37
2022-12-26T00:41:02.401Z,101.70
2022-12-26T00:43:30.831Z,98.00
2022-12-26T00:45:59.380Z,101.70
2022-12-26T00:48:28.908Z,100.77
2022-12-26T00:50:57.410Z,98.87
2022-12-26T00:53:26.172Z,96.53
2022-12-26T00:55:54.583Z,100.20
2022-12-26T00:58:24.633Z,101.57
2022-12-26T01:00:53.244Z,105.57
2022-12-26T01:03:21.760Z,107.47
2022-12-26T01:05:51.342Z,110.23
2022-12-26T01:08:24.628Z,111.57
2022-12-26T01:10:53.971Z,110.10
2022-12-26T01:13:23.778Z,111.97
2022-12-26T01:15:52.333Z,115.03
2022-12-26T01:18:20.957Z,116.10
2022-12-26T01:20:49.734Z,116.77
2022-12-26T01:23:18.693Z,116.27
2022-12-26T01:26:17.504Z,115.17
2022-12-26T01:28:37.116Z,116.67
2022-12-26T01:31:05.980Z,116.20
2022-12-26T01:33:34.844Z,116.53
2022-12-26T01:36:03.268Z,115.10
2022-12-26T01:38:31.685Z,116.90
2022-12-26T01:41:20.048Z,115.13
2022-12-26T01:43:51.960Z,113.00
2022-12-26T01:46:22.112Z,114.70
2022-12-26T01:48:50.798Z,117.97
2022-12-26T01:51:19.383Z,117.17
2022-12-26T01:53:49.120Z,118.23
2022-12-26T01:56:19.621Z,117.57
2022-12-26T01:58:50.278Z,114.97
2022-12-26T02:01:21.615Z,117.10
2022-12-26T02:04:07.584Z,119.07
2022-12-26T02:06:36.601Z,121.70
2022-12-26T02:09:06.576Z,122.17
2022-12-26T02:11:37.048Z,125.17
2022-12-26T02:14:07.421Z,123.03
2022-12-26T02:16:37.967Z,122.23
2022-12-26T02:19:08.690Z,121.13
2022-12-26T02:22:01.203Z,119.83
2022-12-26T02:24:42.426Z,118.27
2022-12-26T02:27:19.163Z,117.53
2022-12-26T02:30:02.382Z,118.00
2022-12-26T02:32:38.908Z,118.43
2022-12-26T02:35:12.532Z,119.03
2022-12-26T02:37:49.597Z,119.13
2022-12-26T02:40:29.008Z,115.50
2022-12-26T02:43:00.302Z,121.03
2022-12-26T02:45:51.599Z,115.47
2022-12-26T02:48:25.823Z,111.93
2022-12-26T02:51:14.110Z,116.03
2022-12-26T02:54:04.911Z,111.97
2022-12-26T02:56:53.682Z,116.03
2022-12-26T02:59:55.652Z,111.43
2022-12-26T03:02:45.621Z,111.63
2022-12-26T03:05:35.993Z,108.00
2022-12-26T03:08:23.155Z,106.47
2022-12-26T03:11:09.750Z,108.47
2022-12-26T03:13:39.019Z,103.90
2022-12-26T03:16:28.397Z,103.37
2022-12-26T03:19:00.838Z,105.67
2022-12-26T03:21:32.388Z,105.23
2022-12-26T03:24:00.966Z,105.77
2022-12-26T03:26:39.796Z,104.40
2022-12-26T03:29:26.881Z,103.23
2022-12-26T03:31:55.295Z,102.17
2022-12-26T03:34:22.753Z,100.07
2022-12-26T03:37:07.110Z,99.53
2022-12-26T03:39:59.391Z,98.80
2022-12-26T03:42:49.881Z,98.03
2022-12-26T03:45:40.108Z,100.03
2022-12-26T03:48:26.755Z,103.23
2022-12-26T03:51:16.573Z,98.03
2022-12-26T03:54:04.686Z,103.93
2022-12-26T03:56:53.855Z,105.40
2022-12-26T03:59:43.460Z,100.83
2022-12-26T04:02:31.550Z,99.23
2022-12-26T04:05:18.530Z,104.67
2022-12-26T04:08:05.915Z,107.27
2022-12-26T04:10:54.357Z,107.70
2022-12-26T04:13:43.135Z,104.97
2022-12-26T04:16:34.376Z,104.60
2022-12-26T04:19:26.667Z,106.80
2022-12-26T04:22:15.101Z,106.63
2022-12-26T04:25:02.918Z,106.40
2022-12-26T04:27:49.841Z,107.70
2022-12-26T04:30:37.340Z,108.63
2022-12-26T04:33:26.287Z,109.20
2022-12-26T04:36:14.725Z,110.23
2022-12-26T04:39:02.627Z,113.73
2022-12-26T04:41:49.348Z,110.70
2022-12-26T04:44:19.199Z,111.63
2022-12-26T04:46:50.038Z,108.10
2022-12-26T04:49:33.160Z,106.70
2022-12-26T04:52:02.136Z,101.73
2022-12-26T04:54:31.480Z,99.83
2022-12-26T04:57:00.000Z,99.57
2022-12-26T04:59:28.638Z,99.20
2022-12-26T05:02:16.015Z,98.10
2022-12-26T05:05:02.511Z,98.27
2022-12-26T05:07:49.546Z,100.13
2022-12-26T05:10:19.711Z,97.87
2022-12-26T05:12:48.108Z,98.07
2022-12-26T05:15:17.047Z,97.53
2022-12-26T05:18:04.623Z,98.40
2022-12-26T05:20:50.874Z,97.00
2022-12-26T05:23:38.941Z,98.80
2022-12-26T05:26:25.451Z,101.50
2022-12-26T05:28:56.947Z,102.30
2022-12-26T05:31:29.767Z,101.93
2022-12-26T05:34:08.353Z,105.97
2022-12-26T05:36:39.509Z,102.87
2022-12-26T05:39:08.562Z,103.93
2022-12-26T05:41:36.978Z,102.27
2022-12-26T05:44:05.568Z,103.07
2022-12-26T05:46:34.051Z,101.63
2022-12-26T05:49:04.081Z,101.00
2022-12-26T05:51:32.646Z,101.30
2022-12-26T05:54:01.144Z,105.07
2022-12-26T05:56:29.833Z,104.90
2022-12-26T05:58:58.717Z,101.00
2022-12-26T06:01:27.871Z,104.63
2022-12-26T06:03:57.763Z,101.57
2022-12-26T06:06:28.369Z,101.73
2022-12-26T06:08:57.727Z,101.67
2022-12-26T06:11:27.120Z,100.67
2022-12-26T06:13:56.451Z,99.47
2022-12-26T06:16:25.206Z,98.27
2022-12-26T06:18:53.642Z,98.90
2022-12-26T06:21:23.105Z,99.80
2022-12-26T06:23:52.901Z,101.33
2022-12-26T06:26:21.280Z,102.10
2022-12-26T06:28:49.683Z,103.13
2022-12-26T06:31:20.757Z,73.73
2022-12-26T06:33:49.467Z,65.80
2022-12-26T06:36:18.983Z,60.07
2022-12-26T06:38:48.085Z,55.40
2022-12-26T06:41:19.468Z,51.47
2022-12-26T06:43:48.873Z,51.93
2022-12-26T06:46:18.136Z,49.07
2022-12-26T06:48:46.771Z,47.63
2022-12-26T06:51:16.081Z,47.43
2022-12-26T06:53:44.856Z,48.27
2022-12-26T06:56:14.115Z,47.40
2022-12-26T06:58:44.307Z,49.57
2022-12-26T07:01:13.729Z,47.20
2022-12-26T07:03:50.437Z,48.43
2022-12-26T07:06:23.364Z,47.83
2022-12-26T07:08:52.130Z,47.97
2022-12-26T07:11:21.511Z,46.30
2022-12-26T07:13:51.431Z,44.53
2022-12-26T07:16:19.900Z,45.03
2022-12-26T07:18:48.315Z,44.57
2022-12-26T07:21:17.717Z,42.47
2022-12-26T07:23:46.130Z,49.03
2022-12-26T07:26:14.635Z,46.03
2022-12-26T07:28:43.048Z,48.60
2022-12-26T07:31:17.393Z,45.80
2022-12-26T07:33:48.320Z,45.97
2022-12-26T07:36:16.764Z,51.53
2022-12-26T07:38:45.572Z,51.40
2022-12-26T07:41:31.695Z,49.30
2022-12-26T07:44:00.282Z,48.23
2022-12-26T07:46:30.143Z,48.17
2022-12-26T07:48:58.721Z,47.80
2022-12-26T07:51:27.137Z,45.30
2022-12-26T07:53:55.544Z,46.33
2022-12-26T07:56:23.946Z,45.27
2022-12-26T07:58:52.599Z,45.80
2022-12-26T08:01:21.077Z,43.83
2022-12-26T08:03:51.596Z,45.83
2022-12-26T08:06:20.455Z,46.73
2022-12-26T08:08:51.421Z,46.90
2022-12-26T08:11:20.687Z,45.00
2022-12-26T08:13:49.115Z,45.80
2022-12-26T08:16:17.651Z,47.13
2022-12-26T08:18:46.104Z,46.63
2022-12-26T08:21:15.896Z,43.70
2022-12-26T08:23:44.272Z,43.80
2022-12-26T08:26:13.686Z,44.63
2022-12-26T08:28:42.137Z,42.17
2022-12-26T08:31:11.691Z,44.57
2022-12-26T08:33:40.122Z,48.07
2022-12-26T08:36:10.148Z,45.27
2022-12-26T08:38:40.777Z,44.23
2022-12-26T08:41:09.331Z,44.37
2022-12-26T08:44:25.813Z,45.47
2022-12-26T08:46:26.480Z,44.87
2022-12-26T08:48:55.267Z,44.97
2022-12-26T08:51:25.502Z,48.27
2022-12-26T08:53:56.716Z,48.03
2022-12-26T08:56:26.087Z,48.10
2022-12-26T08:58:54.708Z,47.93
2022-12-26T09:01:24.358Z,47.93
2022-12-26T09:03:54.728Z,51.63
2022-12-26T09:06:23.540Z,51.50
2022-12-26T09:08:52.590Z,51.20
2022-12-26T09:11:23.068Z,53.63
2022-12-26T09:13:51.486Z,54.03
2022-12-26T09:16:20.893Z,55.23
2022-12-26T09:18:49.607Z,53.33
2022-12-26T09:21:18.239Z,56.67
2022-12-26T09:23:46.784Z,60.30
2022-12-26T09:26:15.876Z,59.20
2022-12-26T09:28:47.021Z,59.00
2022-12-26T09:31:16.574Z,61.10
2022-12-26T09:33:45.078Z,61.37
2022-12-26T09:36:15.334Z,60.97
2022-12-26T09:38:43.987Z,62.43
2022-12-26T09:41:26.054Z,60.13
2022-12-26T09:44:01.541Z,63.60
2022-12-26T09:46:33.229Z,62.83
2022-12-26T09:49:05.003Z,66.03
2022-12-26T09:51:34.872Z,65.10
2022-12-26T09:54:04.217Z,66.50
2022-12-26T09:59:26.535Z,67.13
2022-12-26T10:01:55.501Z,68.33
2022-12-26T10:04:29.489Z,67.30
2022-12-26T10:07:05.347Z,67.03
2022-12-26T10:09:42.631Z,66.97
2022-12-26T10:12:25.086Z,65.80
2022-12-26T10:14:57.898Z,65.73
2022-12-26T10:17:30.494Z,67.87
2022-12-26T10:20:06.692Z,66.17
2022-12-26T10:22:42.725Z,66.47
2022-12-26T10:25:16.529Z,64.83
2022-12-26T10:27:47.376Z,66.67
2022-12-26T10:30:18.978Z,63.53
2022-12-26T10:32:49.189Z,62.70
2022-12-26T10:35:22.310Z,62.07
2022-12-26T10:37:51.509Z,65.90
2022-12-26T10:40:21.892Z,70.30
2022-12-26T10:42:52.668Z,66.17
2022-12-26T10:45:28.008Z,64.83
2022-12-26T10:47:56.641Z,64.47
2022-12-26T10:50:27.896Z,62.57
2022-12-26T10:52:56.779Z,60.93
2022-12-26T10:55:34.780Z,61.77
2022-12-26T10:58:07.451Z,60.03
2022-12-26T11:00:37.310Z,59.67
2022-12-26T11:03:06.770Z,60.10
2022-12-26T11:08:27.207Z,57.23
2022-12-26T11:11:04.002Z,55.83
2022-12-26T11:13:34.343Z,56.43
2022-12-26T11:16:04.500Z,57.93
2022-12-26T11:18:35.237Z,56.33
2022-12-26T11:21:13.918Z,60.23
2022-12-26T11:23:42.363Z,60.13
2022-12-26T11:26:21.277Z,59.27
2022-12-26T11:28:49.691Z,59.57
2022-12-26T11:31:26.971Z,61.30
2022-12-26T11:33:55.731Z,63.07
2022-12-26T11:36:26.005Z,61.10
2022-12-26T11:38:55.397Z,63.20
2022-12-26T11:41:40.383Z,64.37
2022-12-26T11:44:27.592Z,60.83
2022-12-26T11:46:59.234Z,58.93
2022-12-26T11:49:30.359Z,57.50
2022-12-26T11:52:00.048Z,57.00
2022-12-26T11:54:30.189Z,56.73
2022-12-26T11:57:03.864Z,58.03
2022-12-26T11:59:32.254Z,57.83
2022-12-26T12:02:22.223Z,60.33
2022-12-26T12:04:51.423Z,56.30
2022-12-26T12:07:24.703Z,57.93
2022-12-26T12:09:56.445Z,55.80
2022-12-26T12:12:27.688Z,54.93
2022-12-26T12:15:00.068Z,53.40
2022-12-26T12:17:32.710Z,52.90
2022-12-26T12:20:16.962Z,55.10
2022-12-26T12:23:01.304Z,54.37
2022-12-26T12:25:44.570Z,54.27
2022-12-26T12:28:23.225Z,53.27
2022-12-26T12:30:55.182Z,52.27
2022-12-26T12:33:31.823Z,53.13
2022-12-26T12:36:06.215Z,51.00
2022-12-26T12:38:36.059Z,51.33
2022-12-26T12:41:21.596Z,50.70
2022-12-26T12:43:53.086Z,51.60
2022-12-26T12:46:24.983Z,50.20
2022-12-26T12:49:04.955Z,50.73
2022-12-26T12:51:38.558Z,49.37
2022-12-26T12:54:21.351Z,49.63
2022-12-26T12:56:54.224Z,50.93
2022-12-26T12:59:29.117Z,50.47
2022-12-26T13:02:04.001Z,50.07
2022-12-26T13:04:40.479Z,47.20
2022-12-26T13:07:12.801Z,48.37
2022-12-26T13:09:44.988Z,48.87
2022-12-26T13:12:16.516Z,48.73
2022-12-26T13:14:46.200Z,47.60
2022-12-26T13:17:16.394Z,48.23
2022-12-26T13:19:51.562Z,47.43
2022-12-26T13:22:24.670Z,48.53
2022-12-26T13:24:54.356Z,49.00
2022-12-26T13:27:24.180Z,48.43
2022-12-26T13:29:53.887Z,48.53
2022-12-26T13:32:23.887Z,47.70
2022-12-26T13:34:54.363Z,47.97
2022-12-26T13:37:43.709Z,48.13
2022-12-26T13:40:17.643Z,45.73
2022-12-26T13:43:04.954Z,47.10
2022-12-26T13:45:50.181Z,46.73
2022-12-26T13:48:39.493Z,46.70
2022-12-26T13:51:29.706Z,47.50
2022-12-26T13:54:01.360Z,46.37
2022-12-26T13:57:02.771Z,47.03
2022-12-26T13:59:34.557Z,46.63
2022-12-26T14:02:14.726Z,45.47
2022-12-26T14:04:52.544Z,45.93
2022-12-26T14:07:25.256Z,45.03
2022-12-26T14:09:59.444Z,48.27
2022-12-26T14:12:34.783Z,45.57
2022-12-26T14:15:09.046Z,46.73
2022-12-26T14:17:42.659Z,45.93
2022-12-26T14:20:17.837Z,47.17
2022-12-26T14:22:49.778Z,45.50
2022-12-26T14:25:22.852Z,43.80
2022-12-26T14:27:54.373Z,42.90
2022-12-26T14:30:26.197Z,42.90
2022-12-26T14:33:01.747Z,42.60
2022-12-26T14:35:33.149Z,44.53
2022-12-26T14:38:07.206Z,43.97
2022-12-26T14:40:38.139Z,44.03
2022-12-26T14:43:12.688Z,45.87
2022-12-26T14:45:46.132Z,46.03
2022-12-26T14:48:41.575Z,46.90
2022-12-26T14:51:28.372Z,46.67
2022-12-26T14:54:11.582Z,45.50
2022-12-26T14:56:41.696Z,44.37
2022-12-26T14:59:26.346Z,42.93
2022-12-26T15:02:02.752Z,42.67
2022-12-26T15:04:49.926Z,42.40
2022-12-26T15:07:37.162Z,42.80
2022-12-26T15:10:29.628Z,43.50
2022-12-26T15:13:15.969Z,43.50
2022-12-26T15:15:56.887Z,44.50
2022-12-26T15:18:42.907Z,44.73
2022-12-26T15:21:20.738Z,44.57
2022-12-26T15:24:00.544Z,44.00
2022-12-26T15:26:42.091Z,44.83
2022-12-26T15:29:25.335Z,43.20
2022-12-26T15:32:03.560Z,46.07
2022-12-26T15:34:41.945Z,43.77
2022-12-26T15:37:16.998Z,43.43
2022-12-26T15:39:50.019Z,43.83
2022-12-26T15:42:28.781Z,44.23
2022-12-26T15:45:14.306Z,44.17
2022-12-26T15:47:46.683Z,44.43
2022-12-26T15:50:20.786Z,42.57
2022-12-26T15:52:53.451Z,43.27
2022-12-26T15:55:44.367Z,43.23
2022-12-26T15:58:17.659Z,43.23
2022-12-26T16:00:50.455Z,44.03
2022-12-26T16:03:23.945Z,44.20
2022-12-26T16:05:59.536Z,43.20
2022-12-26T16:08:48.819Z,43.33
2022-12-26T16:11:19.671Z,43.40
2022-12-26T16:13:52.197Z,41.17
2022-12-26T16:16:34.698Z,50.60
2022-12-26T16:19:20.981Z,56.17
2022-12-26T16:22:08.587Z,60.87
2022-12-26T16:24:38.833Z,62.17
2022-12-26T16:27:08.214Z,59.60
2022-12-26T16:29:47.000Z,64.47
2022-12-26T16:32:18.249Z,68.20
2022-12-26T16:34:48.186Z,68.73
2022-12-26T16:37:19.135Z,68.27
2022-12-26T16:39:47.773Z,70.43
2022-12-26T16:42:30.440Z,69.53
2022-12-26T16:44:59.280Z,76.67
2022-12-26T16:47:27.994Z,70.93
2022-12-26T16:49:58.682Z,73.70
2022-12-26T16:52:39.245Z,76.60
2022-12-26T16:55:35.706Z,78.23
2022-12-26T16:58:06.628Z,72.53
2022-12-26T17:00:35.080Z,75.73
2022-12-26T17:03:05.992Z,79.83
2022-12-26T17:05:38.042Z,79.50
2022-12-26T17:08:07.235Z,78.60
2022-12-26T17:10:36.641Z,80.20
2022-12-26T17:13:06.932Z,80.40
2022-12-26T17:15:36.052Z,85.17
2022-12-26T17:18:28.895Z,82.90
2022-12-26T17:21:16.241Z,81.77
2022-12-26T17:23:45.671Z,81.20
2022-12-26T17:26:31.700Z,84.83
2022-12-26T17:29:00.125Z,80.93
2022-12-26T17:31:33.008Z,82.30
2022-12-26T17:34:03.571Z,79.90
2022-12-26T17:39:23.888Z,82.43
2022-12-26T17:41:53.466Z,81.67
2022-12-26T17:44:38.344Z,83.70
2022-12-26T17:47:19.567Z,83.43
2022-12-26T17:49:48.331Z,84.00
2022-12-26T17:52:19.537Z,81.17
2022-12-26T17:54:49.111Z,86.50
2022-12-26T17:57:19.432Z,84.97
2022-12-26T17:59:47.813Z,85.20
2022-12-26T18:02:16.442Z,84.27
2022-12-26T18:04:44.996Z,83.97
2022-12-26T18:07:14.873Z,90.00
2022-12-26T18:09:45.017Z,87.10
2022-12-26T18:12:14.156Z,87.33
2022-12-26T18:14:42.579Z,87.23
2022-12-26T18:17:13.094Z,83.93
2022-12-26T18:19:41.732Z,84.97
2022-12-26T18:22:13.238Z,90.33
2022-12-26T18:24:41.677Z,90.30
2022-12-26T18:27:13.759Z,94.70
2022-12-26T18:29:42.973Z,89.80
2022-12-26T18:32:14.349Z,96.27
2022-12-26T18:34:42.788Z,93.97
2022-12-26T18:37:11.499Z,94.03
2022-12-26T18:39:39.884Z,95.83
2022-12-26T18:42:08.325Z,95.10
2022-12-26T18:44:38.163Z,96.83
2022-12-26T18:47:06.658Z,99.70
2022-12-26T18:49:35.074Z,95.93
2022-12-26T18:52:03.563Z,101.47
2022-12-26T18:54:31.966Z,106.80
2022-12-26T18:57:00.359Z,103.07
2022-12-26T18:59:28.865Z,106.90
2022-12-26T19:01:58.696Z,112.13
2022-12-26T19:04:27.251Z,103.60
2022-12-26T19:06:55.659Z,104.43
2022-12-26T19:09:24.063Z,104.90
2022-12-26T19:11:52.455Z,105.27
2022-12-26T19:14:22.368Z,106.50
2022-12-26T19:16:50.841Z,117.47
2022-12-26T19:19:20.627Z,111.50
2022-12-26T19:21:49.067Z,126.17
2022-12-26T19:24:17.482Z,119.07
2022-12-26T19:26:45.926Z,117.23
2022-12-26T19:29:14.328Z,116.60
2022-12-26T19:31:42.771Z,116.17
2022-12-26T19:34:11.258Z,114.30
2022-12-26T19:36:41.075Z,117.03
2022-12-26T19:39:09.510Z,114.97
2022-12-26T19:41:37.890Z,114.30
2022-12-26T19:44:06.391Z,110.83
2022-12-26T19:46:35.014Z,118.30
2022-12-26T19:49:03.414Z,117.53
2022-12-26T19:51:31.834Z,114.33
2022-12-26T19:54:01.618Z,113.10
2022-12-26T19:56:30.092Z,117.70
2022-12-26T19:58:58.512Z,123.37
2022-12-26T20:01:28.117Z,121.27
2022-12-26T20:03:57.396Z,120.60
2022-12-26T20:06:26.648Z,125.37
2022-12-26T20:08:57.807Z,119.37
2022-12-26T20:11:29.514Z,120.53
2022-12-26T20:13:58.246Z,117.80
2022-12-26T20:17:03.770Z,116.47
2022-12-26T20:19:16.059Z,114.03
2022-12-26T20:21:44.469Z,119.27
2022-12-26T20:24:13.820Z,115.67
2022-12-26T20:26:44.394Z,116.43
2022-12-26T20:29:13.254Z,115.73
2022-12-26T20:31:42.648Z,115.13
2022-12-26T20:34:12.373Z,114.87
2022-12-26T20:36:41.529Z,115.63
2022-12-26T20:39:12.200Z,113.13
2022-12-26T20:41:40.860Z,114.60
2022-12-26T20:44:10.709Z,114.47
2022-12-26T20:46:39.334Z,118.27
2022-12-26T20:49:07.741Z,116.73
2022-12-26T20:51:38.256Z,124.27
2022-12-26T20:54:07.030Z,127.00
2022-12-26T20:56:35.499Z,124.43
2022-12-26T20:59:03.945Z,122.43
2022-12-26T21:01:33.870Z,119.27
2022-12-26T21:04:02.633Z,121.40
2022-12-26T21:06:32.176Z,121.27
2022-12-26T21:09:01.182Z,118.37
2022-12-26T21:11:30.854Z,120.13
2022-12-26T21:14:00.079Z,125.27
2022-12-26T21:16:29.600Z,126.50
2022-12-26T21:18:59.704Z,124.13
2022-12-26T21:21:28.945Z,127.27
2022-12-26T21:23:58.348Z,132.20
2022-12-26T21:26:27.184Z,130.63
2022-12-26T21:28:59.821Z,134.80
2022-12-26T21:31:28.769Z,130.03
2022-12-26T21:33:57.702Z,126.77
2022-12-26T21:36:27.703Z,132.30
2022-12-26T21:38:56.405Z,129.13
2022-12-26T21:41:25.329Z,127.47
2022-12-26T21:43:55.293Z,124.90
2022-12-26T21:46:23.750Z,127.60
2022-12-26T21:48:54.181Z,134.43
2022-12-26T21:51:24.827Z,136.87
2022-12-26T21:54:15.333Z,135.03
2022-12-26T21:56:42.751Z,131.30
2022-12-26T21:59:28.726Z,130.13
2022-12-26T22:01:57.252Z,126.40
2022-12-26T22:04:24.707Z,126.03
2022-12-26T22:06:53.412Z,124.87
2022-12-26T22:09:23.476Z,130.67
2022-12-26T22:12:09.260Z,135.50
2022-12-26T22:14:37.677Z,133.83
2022-12-26T22:17:06.091Z,134.30
2022-12-26T22:19:34.505Z,134.70
2022-12-26T22:22:03.000Z,132.63
2022-12-26T22:24:32.797Z,133.60
2022-12-26T22:27:01.190Z,131.70
2022-12-26T22:29:29.658Z,133.40
2022-12-26T22:31:58.973Z,128.63
2022-12-26T22:34:27.491Z,128.00
2022-12-26T22:36:55.944Z,128.17
2022-12-26T22:39:24.381Z,126.03
2022-12-26T22:41:58.892Z,127.57
2022-12-26T22:44:30.446Z,126.67
2022-12-26T22:46:58.911Z,130.00
2022-12-26T22:49:27.289Z,127.00
2022-12-26T22:51:55.700Z,131.87
2022-12-26T22:54:24.102Z,124.23
2022-12-26T22:56:53.924Z,124.50
2022-12-26T22:59:49.190Z,128.50
2022-12-26T23:02:11.180Z,125.70
2022-12-26T23:04:40.193Z,126.50
2022-12-26T23:07:08.830Z,128.63
2022-12-26T23:09:37.397Z,128.97
2022-12-26T23:12:25.224Z,132.60
2022-12-26T23:14:53.764Z,130.47
2022-12-26T23:17:36.339Z,128.23
2022-12-26T23:20:22.941Z,128.77
2022-12-26T23:22:51.600Z,126.93
2022-12-26T23:25:20.120Z,129.80
2022-12-26T23:28:07.701Z,125.47
2022-12-26T23:30:36.105Z,129.23
2022-12-26T23:33:04.556Z,127.63
2022-12-26T23:35:33.249Z,125.70
2022-12-26T23:38:01.656Z,125.87
2022-12-26T23:40:30.152Z,126.43
2022-12-26T23:42:59.974Z,130.63
2022-12-26T23:45:28.595Z,126.63
2022-12-26T23:47:57.008Z,126.10
2022-12-26T23:50:25.417Z,125.20
2022-12-26T23:52:53.813Z,121.33
2022-12-26T23:55:22.191Z,124.77
2022-12-26T23:57:50.683Z,125.13
